N9497M KPWK-KDKB
Flight info
| Callsign | N9497M |
|---|---|
| Flight time | N/A |
| Altitude | 4000 |
| Route | RUYOB |
| Aircraft | C210/L-SGRDB/C |
Departure
| Time | 2026-04-28 00:29 |
|---|---|
| Airport | Chicago Executive Airport (KPWK) |
Arrival
| Time | N/A |
|---|---|
| Airport | DeKalb Taylor Municipal Airport (KDKB) |
| Time | Latitude | Longitude | Altitude | Speed | Heading |
|---|---|---|---|---|---|
| 2026-04-28 00:03 | 42.11645 | -87.90078 | 640 ft | 0 kts | 71° |
| 2026-04-28 00:15 | 42.11645 | -87.90077 | 640 ft | 0 kts | 69° |
| 2026-04-28 00:25 | 42.11669 | -87.90060 | 640 ft | 7 kts | 359° |
| 2026-04-28 00:25 | 42.11713 | -87.90077 | 640 ft | 7 kts | 340° |
| 2026-04-28 00:25 | 42.11721 | -87.90138 | 639 ft | 10 kts | 249° |
| 2026-04-28 00:26 | 42.11709 | -87.90220 | 638 ft | 8 kts | 315° |
| 2026-04-28 00:26 | 42.11765 | -87.90258 | 635 ft | 10 kts | 339° |
| 2026-04-28 00:26 | 42.11816 | -87.90283 | 636 ft | 6 kts | 338° |
| 2026-04-28 00:26 | 42.11849 | -87.90301 | 637 ft | 8 kts | 331° |
| 2026-04-28 00:27 | 42.11930 | -87.90342 | 637 ft | 17 kts | 339° |
| 2026-04-28 00:27 | 42.12053 | -87.90406 | 636 ft | 19 kts | 340° |
| 2026-04-28 00:27 | 42.12167 | -87.90466 | 639 ft | 16 kts | 339° |
| 2026-04-28 00:27 | 42.12271 | -87.90521 | 639 ft | 15 kts | 336° |
| 2026-04-28 00:28 | 42.12356 | -87.90573 | 642 ft | 11 kts | 292° |
| 2026-04-28 00:28 | 42.12350 | -87.90634 | 642 ft | 11 kts | 250° |
| 2026-04-28 00:28 | 42.12223 | -87.90657 | 639 ft | 28 kts | 159° |
| 2026-04-28 00:28 | 42.11993 | -87.90540 | 635 ft | 49 kts | 160° |
| 2026-04-28 00:29 | 42.11543 | -87.90320 | 726 ft | 78 kts | 163° |
| 2026-04-28 00:29 | 42.10957 | -87.90095 | 950 ft | 98 kts | 164° |
| 2026-04-28 00:29 | 42.10367 | -87.89744 | 1398 ft | 97 kts | 138° |
| 2026-04-28 00:29 | 42.10364 | -87.88742 | 1540 ft | 134 kts | 62° |
| 2026-04-28 00:30 | 42.11152 | -87.87886 | 1730 ft | 146 kts | 34° |
| 2026-04-28 00:30 | 42.11941 | -87.87231 | 2273 ft | 132 kts | 32° |
| 2026-04-28 00:30 | 42.12681 | -87.86511 | 2484 ft | 137 kts | 34° |
| 2026-04-28 00:30 | 42.13519 | -87.85792 | 2639 ft | 144 kts | 33° |
| 2026-04-28 00:31 | 42.14372 | -87.85088 | 2821 ft | 145 kts | 31° |
| 2026-04-28 00:31 | 42.15232 | -87.84374 | 2995 ft | 148 kts | 32° |
| 2026-04-28 00:31 | 42.16107 | -87.83630 | 3195 ft | 149 kts | 33° |
| 2026-04-28 00:31 | 42.16993 | -87.82907 | 3453 ft | 147 kts | 24° |
| 2026-04-28 00:32 | 42.17930 | -87.82949 | 3649 ft | 129 kts | 320° |
| 2026-04-28 00:32 | 42.18752 | -87.83422 | 3866 ft | 129 kts | 323° |
| 2026-04-28 00:32 | 42.19604 | -87.83897 | 3955 ft | 139 kts | 322° |
| 2026-04-28 00:32 | 42.20529 | -87.84456 | 3964 ft | 152 kts | 322° |
| 2026-04-28 00:33 | 42.21516 | -87.85075 | 3968 ft | 162 kts | 322° |
| 2026-04-28 00:33 | 42.22553 | -87.85759 | 3964 ft | 169 kts | 321° |
| 2026-04-28 00:33 | 42.23604 | -87.86462 | 3960 ft | 172 kts | 322° |
| 2026-04-28 00:33 | 42.24692 | -87.87216 | 3961 ft | 173 kts | 323° |
| 2026-04-28 00:34 | 42.25520 | -87.88227 | 3956 ft | 153 kts | 287° |
| 2026-04-28 00:34 | 42.25675 | -87.89511 | 3956 ft | 133 kts | 250° |
| 2026-04-28 00:34 | 42.25190 | -87.90491 | 3959 ft | 129 kts | 220° |
| 2026-04-28 00:34 | 42.24613 | -87.91423 | 3944 ft | 132 kts | 234° |
| 2026-04-28 00:35 | 42.24236 | -87.92569 | 3943 ft | 134 kts | 242° |
| 2026-04-28 00:35 | 42.23905 | -87.93751 | 3943 ft | 134 kts | 242° |
| 2026-04-28 00:35 | 42.23598 | -87.94923 | 3938 ft | 131 kts | 243° |
| 2026-04-28 00:35 | 42.23296 | -87.96083 | 3937 ft | 131 kts | 243° |
| 2026-04-28 00:36 | 42.22997 | -87.97242 | 3937 ft | 131 kts | 243° |
| 2026-04-28 00:36 | 42.22700 | -87.98403 | 3938 ft | 131 kts | 244° |
| 2026-04-28 00:36 | 42.22400 | -87.99579 | 3941 ft | 133 kts | 244° |
| 2026-04-28 00:36 | 42.22098 | -88.00763 | 3940 ft | 134 kts | 244° |
| 2026-04-28 00:37 | 42.21792 | -88.01955 | 3939 ft | 135 kts | 244° |
| 2026-04-28 00:37 | 42.21486 | -88.03151 | 3939 ft | 135 kts | 244° |
| 2026-04-28 00:37 | 42.21180 | -88.04343 | 3938 ft | 134 kts | 244° |
| 2026-04-28 00:37 | 42.20874 | -88.05533 | 3939 ft | 135 kts | 244° |
| 2026-04-28 00:38 | 42.20567 | -88.06729 | 3938 ft | 135 kts | 244° |
| 2026-04-28 00:38 | 42.20257 | -88.07933 | 3939 ft | 136 kts | 244° |
| 2026-04-28 00:38 | 42.19950 | -88.09130 | 3948 ft | 135 kts | 244° |
| 2026-04-28 00:38 | 42.19637 | -88.10341 | 3947 ft | 138 kts | 245° |
| 2026-04-28 00:39 | 42.19321 | -88.11568 | 3947 ft | 139 kts | 245° |
| 2026-04-28 00:39 | 42.19005 | -88.12799 | 3939 ft | 139 kts | 245° |
| 2026-04-28 00:39 | 42.18687 | -88.14027 | 3949 ft | 139 kts | 246° |
| 2026-04-28 00:39 | 42.18370 | -88.15255 | 3953 ft | 139 kts | 245° |
| 2026-04-28 00:40 | 42.18054 | -88.16485 | 3951 ft | 139 kts | 246° |
| 2026-04-28 00:40 | 42.17738 | -88.17709 | 3952 ft | 138 kts | 246° |
| 2026-04-28 00:40 | 42.17423 | -88.18930 | 3953 ft | 138 kts | 246° |
| 2026-04-28 00:40 | 42.17107 | -88.20153 | 3955 ft | 138 kts | 246° |
| 2026-04-28 00:41 | 42.16793 | -88.21369 | 3954 ft | 137 kts | 246° |
| 2026-04-28 00:41 | 42.16480 | -88.22579 | 3955 ft | 137 kts | 246° |
| 2026-04-28 00:41 | 42.16167 | -88.23788 | 3954 ft | 137 kts | 245° |
| 2026-04-28 00:41 | 42.15853 | -88.24999 | 3953 ft | 137 kts | 246° |
| 2026-04-28 00:42 | 42.15539 | -88.26212 | 3954 ft | 137 kts | 246° |
| 2026-04-28 00:42 | 42.15225 | -88.27423 | 3954 ft | 137 kts | 246° |
| 2026-04-28 00:42 | 42.14911 | -88.28637 | 3958 ft | 138 kts | 246° |
| 2026-04-28 00:42 | 42.14596 | -88.29850 | 3920 ft | 137 kts | 246° |
| 2026-04-28 00:43 | 42.14276 | -88.31068 | 3864 ft | 138 kts | 246° |
| 2026-04-28 00:43 | 42.13960 | -88.32298 | 3790 ft | 140 kts | 246° |
| 2026-04-28 00:43 | 42.13635 | -88.33535 | 3700 ft | 141 kts | 246° |
| 2026-04-28 00:43 | 42.13308 | -88.34788 | 3643 ft | 142 kts | 246° |
| 2026-04-28 00:44 | 42.12985 | -88.36036 | 3581 ft | 140 kts | 245° |
| 2026-04-28 00:44 | 42.12675 | -88.37264 | 3503 ft | 136 kts | 246° |
| 2026-04-28 00:44 | 42.12357 | -88.38411 | 3416 ft | 125 kts | 241° |
| 2026-04-28 00:44 | 42.12061 | -88.39549 | 3345 ft | 130 kts | 249° |
| 2026-04-28 00:45 | 42.11765 | -88.40695 | 3287 ft | 129 kts | 244° |
| 2026-04-28 00:45 | 42.11465 | -88.41838 | 3228 ft | 130 kts | 244° |
| 2026-04-28 00:45 | 42.11175 | -88.42986 | 3172 ft | 130 kts | 245° |
| 2026-04-28 00:45 | 42.10875 | -88.44153 | 3084 ft | 133 kts | 244° |
| 2026-04-28 00:46 | 42.10562 | -88.45332 | 3044 ft | 133 kts | 246° |
| 2026-04-28 00:46 | 42.10265 | -88.46498 | 3023 ft | 128 kts | 247° |
| 2026-04-28 00:46 | 42.09970 | -88.47620 | 3038 ft | 126 kts | 245° |
| 2026-04-28 00:46 | 42.09658 | -88.48727 | 3048 ft | 128 kts | 244° |
| 2026-04-28 00:47 | 42.09334 | -88.49778 | 3117 ft | 118 kts | 241° |
| 2026-04-28 00:47 | 42.08975 | -88.50777 | 3089 ft | 116 kts | 239° |
| 2026-04-28 00:47 | 42.08637 | -88.51824 | 2934 ft | 128 kts | 257° |
| 2026-04-28 00:47 | 42.08771 | -88.53046 | 2937 ft | 138 kts | 284° |
| 2026-04-28 00:48 | 42.09109 | -88.54286 | 2893 ft | 143 kts | 282° |
| 2026-04-28 00:48 | 42.09419 | -88.55560 | 2931 ft | 142 kts | 279° |
| 2026-04-28 00:48 | 42.09661 | -88.56845 | 2955 ft | 141 kts | 278° |
| 2026-04-28 00:48 | 42.09930 | -88.58084 | 3091 ft | 135 kts | 282° |
| 2026-04-28 00:49 | 42.10257 | -88.59278 | 3094 ft | 138 kts | 282° |
| 2026-04-28 00:49 | 42.10562 | -88.60517 | 3079 ft | 142 kts | 282° |
| 2026-04-28 00:49 | 42.10536 | -88.61770 | 3010 ft | 137 kts | 243° |
| 2026-04-28 00:49 | 42.09702 | -88.62333 | 2966 ft | 142 kts | 189° |
| 2026-04-28 00:50 | 42.08734 | -88.62364 | 3075 ft | 134 kts | 195° |
| 2026-04-28 00:50 | 42.07835 | -88.62620 | 3112 ft | 133 kts | 196° |
| 2026-04-28 00:50 | 42.06944 | -88.62916 | 3133 ft | 131 kts | 204° |
| 2026-04-28 00:50 | 42.06198 | -88.63555 | 3068 ft | 130 kts | 220° |
| 2026-04-28 00:51 | 42.05410 | -88.64182 | 3069 ft | 136 kts | 206° |
| 2026-04-28 00:51 | 42.04519 | -88.64636 | 3040 ft | 135 kts | 207° |
| 2026-04-28 00:51 | 42.03686 | -88.65107 | 2764 ft | 127 kts | 210° |
| 2026-04-28 00:51 | 42.02923 | -88.65570 | 2653 ft | 107 kts | 205° |
| 2026-04-28 00:52 | 42.02284 | -88.65932 | 2600 ft | 95 kts | 211° |
| 2026-04-28 00:52 | 42.01700 | -88.66325 | 2452 ft | 94 kts | 210° |
| 2026-04-28 00:52 | 42.01107 | -88.66655 | 2292 ft | 93 kts | 205° |
| 2026-04-28 00:52 | 42.00502 | -88.66961 | 2155 ft | 94 kts | 205° |
| 2026-04-28 00:53 | 41.99886 | -88.67281 | 2023 ft | 95 kts | 205° |
| 2026-04-28 00:53 | 41.99279 | -88.67568 | 1929 ft | 91 kts | 201° |
| 2026-04-28 00:53 | 41.98678 | -88.67800 | 1824 ft | 87 kts | 200° |
| 2026-04-28 00:53 | 41.98097 | -88.68063 | 1717 ft | 89 kts | 203° |
| 2026-04-28 00:54 | 41.97533 | -88.68394 | 1595 ft | 91 kts | 205° |
| 2026-04-28 00:54 | 41.96949 | -88.68736 | 1469 ft | 91 kts | 201° |
| 2026-04-28 00:54 | 41.96335 | -88.68975 | 1338 ft | 92 kts | 193° |
| 2026-04-28 00:54 | 41.95739 | -88.69257 | 1182 ft | 90 kts | 202° |
| 2026-04-28 00:55 | 41.95164 | -88.69540 | 1071 ft | 87 kts | 197° |
| 2026-04-28 00:55 | 41.94553 | -88.69830 | 1153 ft | 100 kts | 195° |
| 2026-04-28 00:55 | 41.93828 | -88.70145 | 1396 ft | 116 kts | 196° |
| 2026-04-28 00:55 | 41.93034 | -88.70472 | 1688 ft | 123 kts | 200° |
| 2026-04-28 00:56 | 41.92209 | -88.70787 | 2147 ft | 117 kts | 198° |
| 2026-04-28 00:56 | 41.91442 | -88.71048 | 2584 ft | 114 kts | 202° |
| 2026-04-28 00:56 | 41.90612 | -88.71321 | 2658 ft | 138 kts | 197° |
| 2026-04-28 00:56 | 41.89602 | -88.71517 | 2676 ft | 150 kts | 193° |
| 2026-04-28 00:57 | 41.88546 | -88.71787 | 2631 ft | 162 kts | 194° |
| 2026-04-28 00:57 | 41.87431 | -88.72065 | 2584 ft | 164 kts | 195° |
| 2026-04-28 00:57 | 41.86338 | -88.72355 | 2605 ft | 156 kts | 195° |
| 2026-04-28 00:57 | 41.85288 | -88.72664 | 2522 ft | 155 kts | 199° |
| 2026-04-28 00:58 | 41.84280 | -88.73059 | 2528 ft | 149 kts | 203° |
| 2026-04-28 00:58 | 41.83311 | -88.73563 | 2461 ft | 151 kts | 205° |
| 2026-04-28 00:58 | 41.82354 | -88.74108 | 2418 ft | 148 kts | 208° |
| 2026-04-28 00:58 | 41.81404 | -88.74672 | 2339 ft | 151 kts | 207° |
| 2026-04-28 00:59 | 41.80432 | -88.75196 | 2314 ft | 149 kts | 205° |
| 2026-04-28 00:59 | 41.79481 | -88.75683 | 2370 ft | 145 kts | 204° |
| 2026-04-28 00:59 | 41.78538 | -88.76108 | 2428 ft | 144 kts | 203° |
| 2026-04-28 00:59 | 41.77585 | -88.76568 | 2396 ft | 146 kts | 205° |
| 2026-04-28 01:00 | 41.76660 | -88.77097 | 2413 ft | 143 kts | 209° |
| 2026-04-28 01:00 | 41.75775 | -88.77677 | 2461 ft | 141 kts | 207° |
| 2026-04-28 01:00 | 41.74844 | -88.78163 | 2425 ft | 146 kts | 204° |
| 2026-04-28 01:00 | 41.73883 | -88.78561 | 2503 ft | 144 kts | 195° |
| 2026-04-28 01:01 | 41.72849 | -88.78528 | 2464 ft | 153 kts | 179° |
| 2026-04-28 01:01 | 41.71778 | -88.78351 | 2420 ft | 156 kts | 176° |
| 2026-04-28 01:01 | 41.70693 | -88.78145 | 2354 ft | 158 kts | 179° |
| 2026-04-28 01:01 | 41.69605 | -88.77883 | 2274 ft | 158 kts | 177° |